sensor_id;sensor_type;location;lat;lon;timestamp;P1;durP1;ratioP1;P2;durP2;ratioP2
76745;SDS011;65671;49.976;20.038;2023-08-20T00:00:25;13.57;;;9.55;;
76745;SDS011;65671;49.976;20.038;2023-08-20T00:02:51;10.43;;;9.25;;
76745;SDS011;65671;49.976;20.038;2023-08-20T00:05:25;13.98;;;10.77;;
76745;SDS011;65671;49.976;20.038;2023-08-20T00:07:51;11.25;;;9.73;;
76745;SDS011;65671;49.976;20.038;2023-08-20T00:10:16;11.52;;;9.77;;
76745;SDS011;65671;49.976;20.038;2023-08-20T00:12:42;13.73;;;9.60;;
76745;SDS011;65671;49.976;20.038;2023-08-20T00:15:08;11.88;;;10.23;;
76745;SDS011;65671;49.976;20.038;2023-08-20T00:17:37;11.55;;;10.25;;
76745;SDS011;65671;49.976;20.038;2023-08-20T00:20:04;11.68;;;9.70;;
76745;SDS011;65671;49.976;20.038;2023-08-20T00:22:41;13.27;;;9.93;;
76745;SDS011;65671;49.976;20.038;2023-08-20T00:25:10;12.65;;;9.70;;
76745;SDS011;65671;49.976;20.038;2023-08-20T00:27:36;11.50;;;10.30;;
76745;SDS011;65671;49.976;20.038;2023-08-20T00:30:02;11.95;;;9.95;;
76745;SDS011;65671;49.976;20.038;2023-08-20T00:32:28;13.23;;;9.52;;
76745;SDS011;65671;49.976;20.038;2023-08-20T00:34:54;13.27;;;10.38;;
76745;SDS011;65671;49.976;20.038;2023-08-20T00:37:19;12.07;;;10.10;;
76745;SDS011;65671;49.976;20.038;2023-08-20T00:39:45;12.80;;;9.80;;
76745;SDS011;65671;49.976;20.038;2023-08-20T00:42:10;13.50;;;10.32;;
76745;SDS011;65671;49.976;20.038;2023-08-20T00:44:39;10.80;;;9.70;;
76745;SDS011;65671;49.976;20.038;2023-08-20T00:47:06;12.20;;;10.65;;
76745;SDS011;65671;49.976;20.038;2023-08-20T00:49:32;11.68;;;10.23;;
76745;SDS011;65671;49.976;20.038;2023-08-20T00:51:58;10.98;;;9.30;;
76745;SDS011;65671;49.976;20.038;2023-08-20T00:54:24;11.80;;;10.60;;
76745;SDS011;65671;49.976;20.038;2023-08-20T00:56:52;11.63;;;9.63;;
76745;SDS011;65671;49.976;20.038;2023-08-20T00:59:18;11.23;;;9.52;;
76745;SDS011;65671;49.976;20.038;2023-08-20T01:01:45;13.65;;;10.35;;
76745;SDS011;65671;49.976;20.038;2023-08-20T01:04:10;12.43;;;10.40;;
76745;SDS011;65671;49.976;20.038;2023-08-20T01:06:43;12.40;;;10.07;;
76745;SDS011;65671;49.976;20.038;2023-08-20T01:09:16;11.48;;;9.60;;
76745;SDS011;65671;49.976;20.038;2023-08-20T01:11:47;10.07;;;9.07;;
76745;SDS011;65671;49.976;20.038;2023-08-20T01:14:20;11.13;;;10.02;;
76745;SDS011;65671;49.976;20.038;2023-08-20T01:16:46;11.02;;;9.25;;
76745;SDS011;65671;49.976;20.038;2023-08-20T01:19:13;11.70;;;10.50;;
76745;SDS011;65671;49.976;20.038;2023-08-20T01:21:56;13.32;;;9.35;;
76745;SDS011;65671;49.976;20.038;2023-08-20T01:30:06;11.68;;;9.90;;
76745;SDS011;65671;49.976;20.038;2023-08-20T01:32:33;12.05;;;10.05;;
76745;SDS011;65671;49.976;20.038;2023-08-20T01:35:00;12.48;;;9.88;;
76745;SDS011;65671;49.976;20.038;2023-08-20T01:37:25;11.73;;;10.18;;
76745;SDS011;65671;49.976;20.038;2023-08-20T01:39:51;13.65;;;10.30;;
76745;SDS011;65671;49.976;20.038;2023-08-20T01:42:16;14.50;;;11.10;;
76745;SDS011;65671;49.976;20.038;2023-08-20T01:44:43;11.73;;;9.93;;
76745;SDS011;65671;49.976;20.038;2023-08-20T01:47:08;11.82;;;10.50;;
76745;SDS011;65671;49.976;20.038;2023-08-20T01:49:33;11.63;;;9.93;;
76745;SDS011;65671;49.976;20.038;2023-08-20T01:51:59;13.05;;;10.60;;
76745;SDS011;65671;49.976;20.038;2023-08-20T01:54:24;12.75;;;9.70;;
76745;SDS011;65671;49.976;20.038;2023-08-20T01:56:50;12.55;;;9.90;;
76745;SDS011;65671;49.976;20.038;2023-08-20T01:59:15;14.95;;;10.50;;
76745;SDS011;65671;49.976;20.038;2023-08-20T02:01:41;12.13;;;9.95;;
76745;SDS011;65671;49.976;20.038;2023-08-20T02:04:06;12.73;;;10.25;;
76745;SDS011;65671;49.976;20.038;2023-08-20T02:06:32;11.30;;;10.10;;
76745;SDS011;65671;49.976;20.038;2023-08-20T02:08:57;14.75;;;10.77;;
76745;SDS011;65671;49.976;20.038;2023-08-20T02:11:22;12.13;;;10.93;;
76745;SDS011;65671;49.976;20.038;2023-08-20T02:13:48;11.82;;;10.10;;
76745;SDS011;65671;49.976;20.038;2023-08-20T02:16:13;11.65;;;10.45;;
76745;SDS011;65671;49.976;20.038;2023-08-20T02:18:41;12.10;;;10.30;;
76745;SDS011;65671;49.976;20.038;2023-08-20T02:21:07;11.02;;;9.70;;
76745;SDS011;65671;49.976;20.038;2023-08-20T02:23:32;13.45;;;10.25;;
76745;SDS011;65671;49.976;20.038;2023-08-20T02:25:57;11.50;;;9.02;;
76745;SDS011;65671;49.976;20.038;2023-08-20T02:28:23;11.85;;;9.88;;
76745;SDS011;65671;49.976;20.038;2023-08-20T02:30:48;11.60;;;9.75;;
76745;SDS011;65671;49.976;20.038;2023-08-20T02:33:14;13.23;;;10.32;;
76745;SDS011;65671;49.976;20.038;2023-08-20T02:35:40;13.60;;;10.55;;
76745;SDS011;65671;49.976;20.038;2023-08-20T02:38:06;11.02;;;9.48;;
76745;SDS011;65671;49.976;20.038;2023-08-20T02:40:32;13.02;;;10.27;;
76745;SDS011;65671;49.976;20.038;2023-08-20T02:42:57;12.23;;;11.02;;
76745;SDS011;65671;49.976;20.038;2023-08-20T02:45:23;12.80;;;10.55;;
76745;SDS011;65671;49.976;20.038;2023-08-20T02:47:49;12.05;;;10.45;;
76745;SDS011;65671;49.976;20.038;2023-08-20T02:50:14;12.38;;;10.80;;
76745;SDS011;65671;49.976;20.038;2023-08-20T02:52:41;13.48;;;11.13;;
76745;SDS011;65671;49.976;20.038;2023-08-20T02:55:07;10.55;;;9.45;;
76745;SDS011;65671;49.976;20.038;2023-08-20T02:57:33;15.13;;;9.75;;
76745;SDS011;65671;49.976;20.038;2023-08-20T02:59:58;17.73;;;11.48;;
76745;SDS011;65671;49.976;20.038;2023-08-20T03:02:24;13.50;;;11.73;;
76745;SDS011;65671;49.976;20.038;2023-08-20T03:04:49;12.45;;;10.50;;
76745;SDS011;65671;49.976;20.038;2023-08-20T03:07:15;12.80;;;10.32;;
76745;SDS011;65671;49.976;20.038;2023-08-20T03:09:40;15.20;;;10.60;;
76745;SDS011;65671;49.976;20.038;2023-08-20T03:12:06;12.30;;;10.43;;
76745;SDS011;65671;49.976;20.038;2023-08-20T03:14:32;12.32;;;11.10;;
76745;SDS011;65671;49.976;20.038;2023-08-20T03:16:57;13.00;;;10.52;;
76745;SDS011;65671;49.976;20.038;2023-08-20T03:19:22;13.50;;;10.52;;
76745;SDS011;65671;49.976;20.038;2023-08-20T03:21:48;14.80;;;11.13;;
76745;SDS011;65671;49.976;20.038;2023-08-20T03:24:13;12.25;;;10.68;;
76745;SDS011;65671;49.976;20.038;2023-08-20T03:26:39;12.85;;;10.85;;
76745;SDS011;65671;49.976;20.038;2023-08-20T03:29:04;16.05;;;10.93;;
76745;SDS011;65671;49.976;20.038;2023-08-20T03:31:30;15.65;;;10.23;;
76745;SDS011;65671;49.976;20.038;2023-08-20T03:33:55;13.23;;;11.15;;
76745;SDS011;65671;49.976;20.038;2023-08-20T03:36:21;11.98;;;10.00;;
76745;SDS011;65671;49.976;20.038;2023-08-20T03:38:46;11.35;;;10.18;;
76745;SDS011;65671;49.976;20.038;2023-08-20T03:41:11;12.55;;;10.00;;
76745;SDS011;65671;49.976;20.038;2023-08-20T03:43:37;13.80;;;10.50;;
76745;SDS011;65671;49.976;20.038;2023-08-20T03:46:02;13.13;;;11.73;;
76745;SDS011;65671;49.976;20.038;2023-08-20T03:48:28;12.15;;;10.85;;
76745;SDS011;65671;49.976;20.038;2023-08-20T03:50:54;13.27;;;11.88;;
76745;SDS011;65671;49.976;20.038;2023-08-20T03:53:20;12.35;;;10.57;;
76745;SDS011;65671;49.976;20.038;2023-08-20T03:55:49;12.32;;;10.93;;
76745;SDS011;65671;49.976;20.038;2023-08-20T03:58:14;13.60;;;11.68;;
76745;SDS011;65671;49.976;20.038;2023-08-20T04:00:40;12.25;;;10.80;;
76745;SDS011;65671;49.976;20.038;2023-08-20T04:03:05;11.80;;;10.55;;
76745;SDS011;65671;49.976;20.038;2023-08-20T04:05:35;13.15;;;11.40;;
76745;SDS011;65671;49.976;20.038;2023-08-20T04:08:04;12.95;;;10.93;;
76745;SDS011;65671;49.976;20.038;2023-08-20T04:10:31;13.43;;;10.27;;
76745;SDS011;65671;49.976;20.038;2023-08-20T04:12:56;11.75;;;10.18;;
76745;SDS011;65671;49.976;20.038;2023-08-20T04:15:22;15.02;;;10.88;;
76745;SDS011;65671;49.976;20.038;2023-08-20T04:17:47;12.73;;;9.93;;
76745;SDS011;65671;49.976;20.038;2023-08-20T04:20:14;14.15;;;11.30;;
76745;SDS011;65671;49.976;20.038;2023-08-20T04:22:40;11.95;;;10.30;;
76745;SDS011;65671;49.976;20.038;2023-08-20T04:25:06;14.32;;;10.70;;
76745;SDS011;65671;49.976;20.038;2023-08-20T04:27:32;13.23;;;11.63;;
76745;SDS011;65671;49.976;20.038;2023-08-20T04:29:57;12.30;;;10.93;;
76745;SDS011;65671;49.976;20.038;2023-08-20T04:32:23;12.52;;;11.23;;
76745;SDS011;65671;49.976;20.038;2023-08-20T04:34:48;15.07;;;11.15;;
76745;SDS011;65671;49.976;20.038;2023-08-20T04:37:17;11.18;;;10.07;;
76745;SDS011;65671;49.976;20.038;2023-08-20T04:39:43;11.48;;;10.27;;
76745;SDS011;65671;49.976;20.038;2023-08-20T04:42:09;11.90;;;10.43;;
76745;SDS011;65671;49.976;20.038;2023-08-20T04:44:34;12.73;;;10.68;;
76745;SDS011;65671;49.976;20.038;2023-08-20T04:47:00;13.48;;;11.13;;
76745;SDS011;65671;49.976;20.038;2023-08-20T04:49:25;13.82;;;9.88;;
76745;SDS011;65671;49.976;20.038;2023-08-20T04:51:53;12.25;;;10.68;;
76745;SDS011;65671;49.976;20.038;2023-08-20T04:54:19;11.43;;;10.23;;
76745;SDS011;65671;49.976;20.038;2023-08-20T04:56:44;13.20;;;10.60;;
76745;SDS011;65671;49.976;20.038;2023-08-20T04:59:10;11.63;;;9.75;;
76745;SDS011;65671;49.976;20.038;2023-08-20T05:01:37;12.30;;;10.95;;
76745;SDS011;65671;49.976;20.038;2023-08-20T05:04:05;12.20;;;10.90;;
76745;SDS011;65671;49.976;20.038;2023-08-20T05:06:31;12.02;;;10.32;;
76745;SDS011;65671;49.976;20.038;2023-08-20T05:08:56;12.40;;;11.10;;
76745;SDS011;65671;49.976;20.038;2023-08-20T05:11:22;12.27;;;11.00;;
76745;SDS011;65671;49.976;20.038;2023-08-20T05:13:47;11.82;;;10.60;;
76745;SDS011;65671;49.976;20.038;2023-08-20T05:16:14;11.77;;;10.57;;
76745;SDS011;65671;49.976;20.038;2023-08-20T05:18:40;12.18;;;10.27;;
76745;SDS011;65671;49.976;20.038;2023-08-20T05:21:05;14.75;;;11.15;;
76745;SDS011;65671;49.976;20.038;2023-08-20T05:23:31;12.25;;;10.27;;
76745;SDS011;65671;49.976;20.038;2023-08-20T05:25:56;12.45;;;11.18;;
76745;SDS011;65671;49.976;20.038;2023-08-20T05:28:22;13.07;;;10.55;;
76745;SDS011;65671;49.976;20.038;2023-08-20T05:30:54;12.68;;;11.20;;
76745;SDS011;65671;49.976;20.038;2023-08-20T05:33:21;12.27;;;10.75;;
76745;SDS011;65671;49.976;20.038;2023-08-20T05:35:46;13.15;;;11.18;;
76745;SDS011;65671;49.976;20.038;2023-08-20T05:38:12;12.68;;;10.77;;
76745;SDS011;65671;49.976;20.038;2023-08-20T05:40:37;15.60;;;11.02;;
76745;SDS011;65671;49.976;20.038;2023-08-20T05:43:03;12.35;;;10.60;;
76745;SDS011;65671;49.976;20.038;2023-08-20T05:45:28;13.27;;;11.35;;
76745;SDS011;65671;49.976;20.038;2023-08-20T05:47:54;11.52;;;10.30;;
76745;SDS011;65671;49.976;20.038;2023-08-20T05:50:19;11.27;;;10.07;;
76745;SDS011;65671;49.976;20.038;2023-08-20T05:52:44;12.50;;;11.20;;
76745;SDS011;65671;49.976;20.038;2023-08-20T05:55:10;11.77;;;10.45;;
76745;SDS011;65671;49.976;20.038;2023-08-20T05:57:36;14.40;;;11.35;;
76745;SDS011;65671;49.976;20.038;2023-08-20T06:00:03;13.60;;;10.48;;
76745;SDS011;65671;49.976;20.038;2023-08-20T06:02:29;13.80;;;10.10;;
76745;SDS011;65671;49.976;20.038;2023-08-20T06:04:55;12.40;;;10.75;;
76745;SDS011;65671;49.976;20.038;2023-08-20T06:07:20;11.60;;;9.95;;
76745;SDS011;65671;49.976;20.038;2023-08-20T06:09:46;13.68;;;10.35;;
76745;SDS011;65671;49.976;20.038;2023-08-20T06:12:12;13.60;;;11.85;;
76745;SDS011;65671;49.976;20.038;2023-08-20T06:14:37;12.38;;;11.18;;
76745;SDS011;65671;49.976;20.038;2023-08-20T06:17:03;13.20;;;11.15;;
76745;SDS011;65671;49.976;20.038;2023-08-20T06:19:28;17.13;;;11.77;;
76745;SDS011;65671;49.976;20.038;2023-08-20T06:21:54;11.57;;;10.40;;
76745;SDS011;65671;49.976;20.038;2023-08-20T06:24:20;16.17;;;11.30;;
76745;SDS011;65671;49.976;20.038;2023-08-20T06:26:45;12.18;;;10.98;;
76745;SDS011;65671;49.976;20.038;2023-08-20T06:29:10;16.52;;;11.70;;
76745;SDS011;65671;49.976;20.038;2023-08-20T06:31:36;14.05;;;11.18;;
76745;SDS011;65671;49.976;20.038;2023-08-20T06:34:01;12.63;;;11.32;;
76745;SDS011;65671;49.976;20.038;2023-08-20T06:36:27;12.82;;;10.27;;
76745;SDS011;65671;49.976;20.038;2023-08-20T06:38:52;14.30;;;11.20;;
76745;SDS011;65671;49.976;20.038;2023-08-20T06:41:18;11.90;;;10.65;;
76745;SDS011;65671;49.976;20.038;2023-08-20T06:43:43;11.43;;;10.27;;
76745;SDS011;65671;49.976;20.038;2023-08-20T06:46:09;10.55;;;9.55;;
76745;SDS011;65671;49.976;20.038;2023-08-20T06:48:34;13.75;;;10.23;;
76745;SDS011;65671;49.976;20.038;2023-08-20T06:51:07;13.27;;;11.23;;
76745;SDS011;65671;49.976;20.038;2023-08-20T06:53:44;11.60;;;10.18;;
76745;SDS011;65671;49.976;20.038;2023-08-20T06:56:10;11.98;;;10.73;;
76745;SDS011;65671;49.976;20.038;2023-08-20T06:58:39;11.75;;;10.63;;
76745;SDS011;65671;49.976;20.038;2023-08-20T07:01:05;13.18;;;10.30;;
76745;SDS011;65671;49.976;20.038;2023-08-20T07:03:38;12.68;;;11.43;;
76745;SDS011;65671;49.976;20.038;2023-08-20T07:06:05;12.30;;;11.00;;
76745;SDS011;65671;49.976;20.038;2023-08-20T07:08:31;11.38;;;10.27;;
76745;SDS011;65671;49.976;20.038;2023-08-20T07:10:56;12.95;;;10.82;;
76745;SDS011;65671;49.976;20.038;2023-08-20T07:13:23;16.08;;;11.10;;
76745;SDS011;65671;49.976;20.038;2023-08-20T07:15:48;12.45;;;9.68;;
76745;SDS011;65671;49.976;20.038;2023-08-20T07:18:14;11.68;;;10.45;;
76745;SDS011;65671;49.976;20.038;2023-08-20T07:20:40;12.68;;;11.25;;
76745;SDS011;65671;49.976;20.038;2023-08-20T07:23:11;13.40;;;10.60;;
76745;SDS011;65671;49.976;20.038;2023-08-20T07:25:38;12.10;;;10.93;;
76745;SDS011;65671;49.976;20.038;2023-08-20T07:28:04;12.45;;;11.15;;
76745;SDS011;65671;49.976;20.038;2023-08-20T07:30:30;11.43;;;10.25;;
76745;SDS011;65671;49.976;20.038;2023-08-20T07:32:56;12.68;;;10.55;;
76745;SDS011;65671;49.976;20.038;2023-08-20T07:35:21;12.23;;;11.02;;
76745;SDS011;65671;49.976;20.038;2023-08-20T07:37:47;12.77;;;11.20;;
76745;SDS011;65671;49.976;20.038;2023-08-20T07:40:13;13.10;;;11.35;;
76745;SDS011;65671;49.976;20.038;2023-08-20T07:42:39;13.45;;;12.10;;
76745;SDS011;65671;49.976;20.038;2023-08-20T07:45:05;13.38;;;11.98;;
76745;SDS011;65671;49.976;20.038;2023-08-20T07:47:32;13.45;;;11.40;;
76745;SDS011;65671;49.976;20.038;2023-08-20T07:49:58;12.52;;;11.27;;
76745;SDS011;65671;49.976;20.038;2023-08-20T07:52:23;12.27;;;11.07;;
76745;SDS011;65671;49.976;20.038;2023-08-20T07:54:48;12.98;;;11.57;;
76745;SDS011;65671;49.976;20.038;2023-08-20T07:57:14;12.05;;;10.55;;
76745;SDS011;65671;49.976;20.038;2023-08-20T07:59:39;12.15;;;10.85;;
76745;SDS011;65671;49.976;20.038;2023-08-20T08:02:05;14.57;;;11.18;;
76745;SDS011;65671;49.976;20.038;2023-08-20T08:04:30;13.27;;;11.77;;
76745;SDS011;65671;49.976;20.038;2023-08-20T08:06:56;11.60;;;10.43;;
76745;SDS011;65671;49.976;20.038;2023-08-20T08:09:28;12.35;;;10.18;;
76745;SDS011;65671;49.976;20.038;2023-08-20T08:11:56;11.43;;;10.23;;
76745;SDS011;65671;49.976;20.038;2023-08-20T08:14:22;12.40;;;11.15;;
76745;SDS011;65671;49.976;20.038;2023-08-20T08:16:48;11.50;;;10.23;;
76745;SDS011;65671;49.976;20.038;2023-08-20T08:19:14;11.93;;;10.40;;
76745;SDS011;65671;49.976;20.038;2023-08-20T08:21:40;11.27;;;10.18;;
76745;SDS011;65671;49.976;20.038;2023-08-20T08:24:06;11.73;;;10.60;;
76745;SDS011;65671;49.976;20.038;2023-08-20T08:26:33;11.85;;;10.60;;
76745;SDS011;65671;49.976;20.038;2023-08-20T08:29:00;11.40;;;10.20;;
76745;SDS011;65671;49.976;20.038;2023-08-20T08:31:26;11.52;;;10.02;;
76745;SDS011;65671;49.976;20.038;2023-08-20T08:33:51;11.82;;;10.55;;
76745;SDS011;65671;49.976;20.038;2023-08-20T08:36:16;12.60;;;11.30;;
76745;SDS011;65671;49.976;20.038;2023-08-20T08:38:42;12.00;;;10.80;;
76745;SDS011;65671;49.976;20.038;2023-08-20T08:41:10;13.30;;;10.95;;
76745;SDS011;65671;49.976;20.038;2023-08-20T08:43:40;11.23;;;10.10;;
76745;SDS011;65671;49.976;20.038;2023-08-20T08:46:06;12.18;;;10.88;;
76745;SDS011;65671;49.976;20.038;2023-08-20T08:48:36;13.02;;;11.35;;
76745;SDS011;65671;49.976;20.038;2023-08-20T08:51:02;12.98;;;11.77;;
76745;SDS011;65671;49.976;20.038;2023-08-20T08:53:27;12.60;;;11.15;;
76745;SDS011;65671;49.976;20.038;2023-08-20T08:55:57;12.82;;;10.65;;
76745;SDS011;65671;49.976;20.038;2023-08-20T08:58:22;12.13;;;10.88;;
76745;SDS011;65671;49.976;20.038;2023-08-20T09:00:48;13.05;;;11.80;;
76745;SDS011;65671;49.976;20.038;2023-08-20T09:03:14;12.70;;;10.50;;
76745;SDS011;65671;49.976;20.038;2023-08-20T09:05:49;12.27;;;10.70;;
76745;SDS011;65671;49.976;20.038;2023-08-20T09:08:29;11.95;;;10.75;;
76745;SDS011;65671;49.976;20.038;2023-08-20T09:10:56;12.10;;;10.77;;
76745;SDS011;65671;49.976;20.038;2023-08-20T09:13:41;12.93;;;11.20;;
76745;SDS011;65671;49.976;20.038;2023-08-20T09:16:11;13.55;;;10.55;;
76745;SDS011;65671;49.976;20.038;2023-08-20T09:18:41;12.82;;;10.48;;
76745;SDS011;65671;49.976;20.038;2023-08-20T09:21:10;12.15;;;10.95;;
76745;SDS011;65671;49.976;20.038;2023-08-20T09:23:37;12.02;;;10.82;;
76745;SDS011;65671;49.976;20.038;2023-08-20T09:26:04;14.40;;;11.32;;
76745;SDS011;65671;49.976;20.038;2023-08-20T09:28:54;12.45;;;10.45;;
76745;SDS011;65671;49.976;20.038;2023-08-20T09:31:19;15.18;;;11.40;;
76745;SDS011;65671;49.976;20.038;2023-08-20T09:33:51;12.02;;;10.65;;
76745;SDS011;65671;49.976;20.038;2023-08-20T09:36:29;13.00;;;11.70;;
76745;SDS011;65671;49.976;20.038;2023-08-20T09:38:56;13.13;;;11.38;;
76745;SDS011;65671;49.976;20.038;2023-08-20T09:41:21;12.68;;;10.93;;
76745;SDS011;65671;49.976;20.038;2023-08-20T09:43:53;12.85;;;10.40;;
76745;SDS011;65671;49.976;20.038;2023-08-20T09:46:26;13.13;;;11.82;;
76745;SDS011;65671;49.976;20.038;2023-08-20T09:48:56;13.45;;;12.15;;
76745;SDS011;65671;49.976;20.038;2023-08-20T09:51:25;15.15;;;13.25;;
76745;SDS011;65671;49.976;20.038;2023-08-20T09:56:40;13.93;;;12.63;;
76745;SDS011;65671;49.976;20.038;2023-08-20T10:01:38;13.70;;;12.30;;
76745;SDS011;65671;49.976;20.038;2023-08-20T10:04:04;16.30;;;12.73;;
76745;SDS011;65671;49.976;20.038;2023-08-20T10:06:30;13.20;;;11.90;;
76745;SDS011;65671;49.976;20.038;2023-08-20T10:08:58;13.35;;;12.05;;
76745;SDS011;65671;49.976;20.038;2023-08-20T10:11:24;13.15;;;11.73;;
76745;SDS011;65671;49.976;20.038;2023-08-20T10:13:49;13.35;;;12.00;;
76745;SDS011;65671;49.976;20.038;2023-08-20T10:16:17;12.63;;;10.88;;
76745;SDS011;65671;49.976;20.038;2023-08-20T10:18:46;12.60;;;11.32;;
76745;SDS011;65671;49.976;20.038;2023-08-20T10:21:12;13.75;;;12.32;;
76745;SDS011;65671;49.976;20.038;2023-08-20T10:23:40;12.55;;;11.27;;
76745;SDS011;65671;49.976;20.038;2023-08-20T10:26:10;12.40;;;10.52;;
76745;SDS011;65671;49.976;20.038;2023-08-20T10:28:36;11.02;;;9.90;;
76745;SDS011;65671;49.976;20.038;2023-08-20T10:31:09;12.02;;;10.38;;
76745;SDS011;65671;49.976;20.038;2023-08-20T10:33:57;11.35;;;10.18;;
76745;SDS011;65671;49.976;20.038;2023-08-20T10:36:23;14.10;;;11.20;;
76745;SDS011;65671;49.976;20.038;2023-08-20T10:38:55;15.85;;;10.73;;
76745;SDS011;65671;49.976;20.038;2023-08-20T10:41:26;10.50;;;9.43;;
76745;SDS011;65671;49.976;20.038;2023-08-20T10:43:52;14.35;;;10.15;;
76745;SDS011;65671;49.976;20.038;2023-08-20T10:46:22;11.77;;;9.85;;
76745;SDS011;65671;49.976;20.038;2023-08-20T10:48:51;10.65;;;9.65;;
76745;SDS011;65671;49.976;20.038;2023-08-20T10:54:02;11.25;;;10.07;;
76745;SDS011;65671;49.976;20.038;2023-08-20T10:59:21;12.50;;;10.57;;
76745;SDS011;65671;49.976;20.038;2023-08-20T11:01:48;10.90;;;9.80;;
76745;SDS011;65671;49.976;20.038;2023-08-20T11:04:16;10.63;;;9.52;;
76745;SDS011;65671;49.976;20.038;2023-08-20T11:06:44;10.23;;;9.30;;
76745;SDS011;65671;49.976;20.038;2023-08-20T11:09:10;10.82;;;9.73;;
76745;SDS011;65671;49.976;20.038;2023-08-20T11:11:37;12.50;;;10.13;;
76745;SDS011;65671;49.976;20.038;2023-08-20T11:14:05;10.38;;;9.20;;
76745;SDS011;65671;49.976;20.038;2023-08-20T11:16:34;11.63;;;10.27;;
76745;SDS011;65671;49.976;20.038;2023-08-20T11:19:01;11.57;;;10.48;;
76745;SDS011;65671;49.976;20.038;2023-08-20T11:21:30;11.10;;;10.10;;
76745;SDS011;65671;49.976;20.038;2023-08-20T11:23:57;10.02;;;9.07;;
76745;SDS011;65671;49.976;20.038;2023-08-20T11:26:22;9.85;;;8.73;;
76745;SDS011;65671;49.976;20.038;2023-08-20T11:28:48;9.85;;;8.95;;
76745;SDS011;65671;49.976;20.038;2023-08-20T11:31:13;10.55;;;8.90;;
76745;SDS011;65671;49.976;20.038;2023-08-20T11:33:39;9.80;;;8.90;;
76745;SDS011;65671;49.976;20.038;2023-08-20T11:36:05;10.43;;;9.25;;
76745;SDS011;65671;49.976;20.038;2023-08-20T11:38:31;9.93;;;8.93;;
76745;SDS011;65671;49.976;20.038;2023-08-20T11:40:59;10.55;;;9.63;;
76745;SDS011;65671;49.976;20.038;2023-08-20T11:43:28;10.25;;;9.32;;
76745;SDS011;65671;49.976;20.038;2023-08-20T11:45:54;8.93;;;8.02;;
76745;SDS011;65671;49.976;20.038;2023-08-20T11:48:20;14.40;;;11.88;;
76745;SDS011;65671;49.976;20.038;2023-08-20T11:50:51;16.90;;;10.90;;
76745;SDS011;65671;49.976;20.038;2023-08-20T11:53:23;14.23;;;11.25;;
76745;SDS011;65671;49.976;20.038;2023-08-20T11:55:48;15.32;;;12.25;;
76745;SDS011;65671;49.976;20.038;2023-08-20T11:58:14;13.48;;;11.20;;
76745;SDS011;65671;49.976;20.038;2023-08-20T12:00:40;12.63;;;11.38;;
76745;SDS011;65671;49.976;20.038;2023-08-20T12:03:07;12.70;;;11.40;;
76745;SDS011;65671;49.976;20.038;2023-08-20T12:05:34;13.13;;;10.95;;
76745;SDS011;65671;49.976;20.038;2023-08-20T12:08:03;11.70;;;10.50;;
76745;SDS011;65671;49.976;20.038;2023-08-20T12:10:30;11.68;;;10.57;;
76745;SDS011;65671;49.976;20.038;2023-08-20T12:12:57;11.43;;;10.32;;
76745;SDS011;65671;49.976;20.038;2023-08-20T12:15:23;11.25;;;10.00;;
76745;SDS011;65671;49.976;20.038;2023-08-20T12:20:27;12.85;;;11.60;;
76745;SDS011;65671;49.976;20.038;2023-08-20T12:22:54;10.25;;;8.85;;
76745;SDS011;65671;49.976;20.038;2023-08-20T12:25:20;10.32;;;9.20;;
76745;SDS011;65671;49.976;20.038;2023-08-20T12:27:45;9.90;;;8.82;;
76745;SDS011;65671;49.976;20.038;2023-08-20T12:30:11;9.15;;;8.25;;
76745;SDS011;65671;49.976;20.038;2023-08-20T12:32:37;9.68;;;8.68;;
76745;SDS011;65671;49.976;20.038;2023-08-20T12:35:02;8.85;;;8.00;;
76745;SDS011;65671;49.976;20.038;2023-08-20T12:37:28;8.98;;;8.07;;
76745;SDS011;65671;49.976;20.038;2023-08-20T12:39:54;13.90;;;8.15;;
76745;SDS011;65671;49.976;20.038;2023-08-20T12:42:19;8.82;;;7.85;;
76745;SDS011;65671;49.976;20.038;2023-08-20T12:44:45;9.70;;;8.70;;
76745;SDS011;65671;49.976;20.038;2023-08-20T12:47:10;13.55;;;9.20;;
76745;SDS011;65671;49.976;20.038;2023-08-20T12:49:35;10.88;;;9.38;;
76745;SDS011;65671;49.976;20.038;2023-08-20T12:52:01;10.57;;;9.27;;
76745;SDS011;65671;49.976;20.038;2023-08-20T12:54:26;11.43;;;10.30;;
76745;SDS011;65671;49.976;20.038;2023-08-20T12:56:52;10.32;;;9.13;;
76745;SDS011;65671;49.976;20.038;2023-08-20T12:59:17;10.93;;;9.30;;
76745;SDS011;65671;49.976;20.038;2023-08-20T13:01:43;12.45;;;9.77;;
76745;SDS011;65671;49.976;20.038;2023-08-20T13:04:09;10.88;;;9.77;;
76745;SDS011;65671;49.976;20.038;2023-08-20T13:06:36;11.35;;;10.15;;
76745;SDS011;65671;49.976;20.038;2023-08-20T13:09:02;11.48;;;10.32;;
76745;SDS011;65671;49.976;20.038;2023-08-20T13:11:28;11.70;;;10.27;;
76745;SDS011;65671;49.976;20.038;2023-08-20T13:13:56;11.52;;;10.32;;
76745;SDS011;65671;49.976;20.038;2023-08-20T13:16:22;10.65;;;9.60;;
76745;SDS011;65671;49.976;20.038;2023-08-20T13:18:48;9.95;;;8.95;;
76745;SDS011;65671;49.976;20.038;2023-08-20T13:21:14;11.80;;;10.57;;
76745;SDS011;65671;49.976;20.038;2023-08-20T13:23:39;10.13;;;9.15;;
76745;SDS011;65671;49.976;20.038;2023-08-20T13:26:06;12.75;;;10.52;;
76745;SDS011;65671;49.976;20.038;2023-08-20T13:28:31;11.45;;;9.88;;
76745;SDS011;65671;49.976;20.038;2023-08-20T13:30:57;11.85;;;10.48;;
76745;SDS011;65671;49.976;20.038;2023-08-20T13:33:23;11.43;;;9.75;;
76745;SDS011;65671;49.976;20.038;2023-08-20T13:35:48;11.65;;;10.15;;
76745;SDS011;65671;49.976;20.038;2023-08-20T13:38:14;11.80;;;10.70;;
76745;SDS011;65671;49.976;20.038;2023-08-20T13:40:40;11.18;;;9.88;;
76745;SDS011;65671;49.976;20.038;2023-08-20T13:43:05;13.13;;;10.70;;
76745;SDS011;65671;49.976;20.038;2023-08-20T13:45:31;12.38;;;11.15;;
76745;SDS011;65671;49.976;20.038;2023-08-20T13:47:57;11.98;;;10.88;;
76745;SDS011;65671;49.976;20.038;2023-08-20T13:50:22;12.52;;;11.32;;
76745;SDS011;65671;49.976;20.038;2023-08-20T13:52:48;12.38;;;10.88;;
76745;SDS011;65671;49.976;20.038;2023-08-20T13:55:13;12.80;;;10.20;;
76745;SDS011;65671;49.976;20.038;2023-08-20T13:57:40;14.38;;;11.05;;
76745;SDS011;65671;49.976;20.038;2023-08-20T14:00:06;13.90;;;10.13;;
76745;SDS011;65671;49.976;20.038;2023-08-20T14:02:37;12.13;;;10.35;;
76745;SDS011;65671;49.976;20.038;2023-08-20T14:05:03;11.50;;;10.40;;
76745;SDS011;65671;49.976;20.038;2023-08-20T14:07:29;11.25;;;10.13;;
76745;SDS011;65671;49.976;20.038;2023-08-20T14:09:55;11.65;;;10.45;;
76745;SDS011;65671;49.976;20.038;2023-08-20T14:12:21;13.32;;;11.00;;
76745;SDS011;65671;49.976;20.038;2023-08-20T14:14:46;13.98;;;12.68;;
76745;SDS011;65671;49.976;20.038;2023-08-20T14:17:12;12.55;;;11.35;;
76745;SDS011;65671;49.976;20.038;2023-08-20T14:19:37;13.52;;;11.82;;
76745;SDS011;65671;49.976;20.038;2023-08-20T14:22:03;12.95;;;11.63;;
76745;SDS011;65671;49.976;20.038;2023-08-20T14:24:28;13.10;;;11.90;;
76745;SDS011;65671;49.976;20.038;2023-08-20T14:26:54;16.33;;;11.52;;